sensor_id;sensor_type;location;lat;lon;timestamp;P1;durP1;ratioP1;P2;durP2;ratioP2
19525;SDS011;9907;42.676;26.348;2023-08-31T00:01:37;9.90;;;8.43;;
19525;SDS011;9907;42.676;26.348;2023-08-31T00:04:03;10.30;;;8.63;;
19525;SDS011;9907;42.676;26.348;2023-08-31T00:06:29;10.03;;;8.90;;
19525;SDS011;9907;42.676;26.348;2023-08-31T00:08:55;9.50;;;8.53;;
19525;SDS011;9907;42.676;26.348;2023-08-31T00:11:20;11.23;;;8.70;;
19525;SDS011;9907;42.676;26.348;2023-08-31T00:13:46;9.10;;;8.17;;
19525;SDS011;9907;42.676;26.348;2023-08-31T00:16:11;11.47;;;9.10;;
19525;SDS011;9907;42.676;26.348;2023-08-31T00:18:37;14.07;;;8.93;;
19525;SDS011;9907;42.676;26.348;2023-08-31T00:21:03;9.00;;;8.20;;
19525;SDS011;9907;42.676;26.348;2023-08-31T00:23:29;12.10;;;8.10;;
19525;SDS011;9907;42.676;26.348;2023-08-31T00:25:55;12.10;;;8.57;;
19525;SDS011;9907;42.676;26.348;2023-08-31T00:28:22;29.03;;;11.37;;
19525;SDS011;9907;42.676;26.348;2023-08-31T00:30:47;21.20;;;10.13;;
19525;SDS011;9907;42.676;26.348;2023-08-31T00:33:13;11.73;;;8.20;;
19525;SDS011;9907;42.676;26.348;2023-08-31T00:35:40;15.97;;;8.03;;
19525;SDS011;9907;42.676;26.348;2023-08-31T00:38:10;12.23;;;9.00;;
19525;SDS011;9907;42.676;26.348;2023-08-31T00:40:40;10.00;;;8.17;;
19525;SDS011;9907;42.676;26.348;2023-08-31T00:43:13;8.73;;;7.90;;
19525;SDS011;9907;42.676;26.348;2023-08-31T00:45:43;11.23;;;8.63;;
19525;SDS011;9907;42.676;26.348;2023-08-31T00:48:10;10.30;;;8.83;;
19525;SDS011;9907;42.676;26.348;2023-08-31T00:50:37;8.97;;;7.93;;
19525;SDS011;9907;42.676;26.348;2023-08-31T00:53:03;14.63;;;8.80;;
19525;SDS011;9907;42.676;26.348;2023-08-31T00:55:29;14.13;;;9.13;;
19525;SDS011;9907;42.676;26.348;2023-08-31T00:57:55;9.73;;;8.57;;
19525;SDS011;9907;42.676;26.348;2023-08-31T01:00:21;13.43;;;9.27;;
19525;SDS011;9907;42.676;26.348;2023-08-31T01:03:01;10.97;;;8.57;;
19525;SDS011;9907;42.676;26.348;2023-08-31T01:08:15;12.73;;;8.90;;
19525;SDS011;9907;42.676;26.348;2023-08-31T01:10:58;12.20;;;8.57;;
19525;SDS011;9907;42.676;26.348;2023-08-31T01:13:44;10.30;;;9.00;;
19525;SDS011;9907;42.676;26.348;2023-08-31T01:16:17;10.53;;;8.70;;
19525;SDS011;9907;42.676;26.348;2023-08-31T01:18:45;13.13;;;9.53;;
19525;SDS011;9907;42.676;26.348;2023-08-31T01:21:17;14.03;;;10.10;;
19525;SDS011;9907;42.676;26.348;2023-08-31T01:23:50;10.10;;;9.10;;
19525;SDS011;9907;42.676;26.348;2023-08-31T01:26:18;10.13;;;9.13;;
19525;SDS011;9907;42.676;26.348;2023-08-31T01:28:44;11.23;;;9.67;;
19525;SDS011;9907;42.676;26.348;2023-08-31T01:31:10;12.10;;;9.63;;
19525;SDS011;9907;42.676;26.348;2023-08-31T01:33:36;10.97;;;9.83;;
19525;SDS011;9907;42.676;26.348;2023-08-31T01:36:02;13.80;;;9.60;;
19525;SDS011;9907;42.676;26.348;2023-08-31T01:38:34;11.83;;;9.70;;
19525;SDS011;9907;42.676;26.348;2023-08-31T01:41:04;11.90;;;9.13;;
19525;SDS011;9907;42.676;26.348;2023-08-31T01:43:32;13.83;;;9.43;;
19525;SDS011;9907;42.676;26.348;2023-08-31T01:45:58;10.97;;;9.47;;
19525;SDS011;9907;42.676;26.348;2023-08-31T01:48:25;11.47;;;9.73;;
19525;SDS011;9907;42.676;26.348;2023-08-31T01:50:50;11.67;;;10.23;;
19525;SDS011;9907;42.676;26.348;2023-08-31T01:53:16;11.17;;;10.07;;
19525;SDS011;9907;42.676;26.348;2023-08-31T01:55:41;14.37;;;10.80;;
19525;SDS011;9907;42.676;26.348;2023-08-31T01:58:06;19.03;;;11.10;;
19525;SDS011;9907;42.676;26.348;2023-08-31T02:00:32;11.30;;;10.17;;
19525;SDS011;9907;42.676;26.348;2023-08-31T02:03:03;11.90;;;10.13;;
19525;SDS011;9907;42.676;26.348;2023-08-31T02:05:29;12.20;;;10.73;;
19525;SDS011;9907;42.676;26.348;2023-08-31T02:07:54;11.80;;;10.53;;
19525;SDS011;9907;42.676;26.348;2023-08-31T02:10:20;13.23;;;10.97;;
19525;SDS011;9907;42.676;26.348;2023-08-31T02:12:45;11.80;;;10.80;;
19525;SDS011;9907;42.676;26.348;2023-08-31T02:15:11;13.20;;;10.50;;
19525;SDS011;9907;42.676;26.348;2023-08-31T02:17:36;11.53;;;10.23;;
19525;SDS011;9907;42.676;26.348;2023-08-31T02:20:03;10.87;;;9.87;;
19525;SDS011;9907;42.676;26.348;2023-08-31T02:22:31;11.83;;;9.90;;
19525;SDS011;9907;42.676;26.348;2023-08-31T02:24:58;12.63;;;10.37;;
19525;SDS011;9907;42.676;26.348;2023-08-31T02:27:24;15.67;;;10.77;;
19525;SDS011;9907;42.676;26.348;2023-08-31T02:29:49;13.03;;;9.90;;
19525;SDS011;9907;42.676;26.348;2023-08-31T02:32:15;11.17;;;9.73;;
19525;SDS011;9907;42.676;26.348;2023-08-31T02:34:40;12.83;;;10.50;;
19525;SDS011;9907;42.676;26.348;2023-08-31T02:37:06;11.40;;;9.67;;
19525;SDS011;9907;42.676;26.348;2023-08-31T02:39:31;12.40;;;11.03;;
19525;SDS011;9907;42.676;26.348;2023-08-31T02:41:57;12.93;;;10.13;;
19525;SDS011;9907;42.676;26.348;2023-08-31T02:44:22;12.87;;;10.50;;
19525;SDS011;9907;42.676;26.348;2023-08-31T02:46:48;10.77;;;9.67;;
19525;SDS011;9907;42.676;26.348;2023-08-31T02:49:13;19.77;;;11.23;;
19525;SDS011;9907;42.676;26.348;2023-08-31T02:51:39;15.60;;;10.70;;
19525;SDS011;9907;42.676;26.348;2023-08-31T02:54:04;14.57;;;9.70;;
19525;SDS011;9907;42.676;26.348;2023-08-31T02:56:30;11.37;;;10.27;;
19525;SDS011;9907;42.676;26.348;2023-08-31T02:58:55;21.47;;;10.73;;
19525;SDS011;9907;42.676;26.348;2023-08-31T03:01:21;14.17;;;10.13;;
19525;SDS011;9907;42.676;26.348;2023-08-31T03:03:48;13.43;;;9.20;;
19525;SDS011;9907;42.676;26.348;2023-08-31T03:06:13;11.73;;;9.73;;
19525;SDS011;9907;42.676;26.348;2023-08-31T03:08:40;12.83;;;9.90;;
19525;SDS011;9907;42.676;26.348;2023-08-31T03:11:05;11.10;;;9.70;;
19525;SDS011;9907;42.676;26.348;2023-08-31T03:13:31;13.97;;;9.87;;
19525;SDS011;9907;42.676;26.348;2023-08-31T03:15:57;10.67;;;9.43;;
19525;SDS011;9907;42.676;26.348;2023-08-31T03:18:24;11.20;;;10.10;;
19525;SDS011;9907;42.676;26.348;2023-08-31T03:20:49;12.03;;;9.57;;
19525;SDS011;9907;42.676;26.348;2023-08-31T03:23:15;12.60;;;9.93;;
19525;SDS011;9907;42.676;26.348;2023-08-31T03:25:41;12.03;;;9.80;;
19525;SDS011;9907;42.676;26.348;2023-08-31T03:28:07;15.10;;;10.03;;
19525;SDS011;9907;42.676;26.348;2023-08-31T03:30:33;12.47;;;9.63;;
19525;SDS011;9907;42.676;26.348;2023-08-31T03:32:58;13.63;;;9.60;;
19525;SDS011;9907;42.676;26.348;2023-08-31T03:35:24;13.53;;;9.77;;
19525;SDS011;9907;42.676;26.348;2023-08-31T03:37:55;13.47;;;10.63;;
19525;SDS011;9907;42.676;26.348;2023-08-31T03:40:21;13.50;;;9.73;;
19525;SDS011;9907;42.676;26.348;2023-08-31T03:42:47;11.60;;;9.90;;
19525;SDS011;9907;42.676;26.348;2023-08-31T03:45:13;10.93;;;9.83;;
19525;SDS011;9907;42.676;26.348;2023-08-31T03:47:39;11.47;;;9.63;;
19525;SDS011;9907;42.676;26.348;2023-08-31T03:50:04;10.77;;;9.63;;
19525;SDS011;9907;42.676;26.348;2023-08-31T03:52:30;11.30;;;10.30;;
19525;SDS011;9907;42.676;26.348;2023-08-31T03:54:56;11.40;;;9.90;;
19525;SDS011;9907;42.676;26.348;2023-08-31T03:57:21;12.37;;;10.53;;
19525;SDS011;9907;42.676;26.348;2023-08-31T03:59:47;14.30;;;9.83;;
19525;SDS011;9907;42.676;26.348;2023-08-31T04:02:12;13.33;;;10.33;;
19525;SDS011;9907;42.676;26.348;2023-08-31T04:04:38;14.23;;;10.90;;
19525;SDS011;9907;42.676;26.348;2023-08-31T04:07:03;13.27;;;9.67;;
19525;SDS011;9907;42.676;26.348;2023-08-31T04:09:30;12.03;;;10.20;;
19525;SDS011;9907;42.676;26.348;2023-08-31T04:11:55;15.93;;;10.40;;
19525;SDS011;9907;42.676;26.348;2023-08-31T04:14:21;13.43;;;10.30;;
19525;SDS011;9907;42.676;26.348;2023-08-31T04:16:46;11.80;;;10.53;;
19525;SDS011;9907;42.676;26.348;2023-08-31T04:19:15;14.97;;;10.10;;
19525;SDS011;9907;42.676;26.348;2023-08-31T04:21:40;10.90;;;9.90;;
19525;SDS011;9907;42.676;26.348;2023-08-31T04:24:06;11.13;;;9.53;;
19525;SDS011;9907;42.676;26.348;2023-08-31T04:26:31;12.33;;;10.03;;
19525;SDS011;9907;42.676;26.348;2023-08-31T04:28:57;20.17;;;17.93;;
19525;SDS011;9907;42.676;26.348;2023-08-31T04:31:22;17.87;;;12.17;;
19525;SDS011;9907;42.676;26.348;2023-08-31T04:33:48;11.87;;;10.03;;
19525;SDS011;9907;42.676;26.348;2023-08-31T04:36:13;10.93;;;9.80;;
19525;SDS011;9907;42.676;26.348;2023-08-31T04:38:39;14.13;;;9.80;;
19525;SDS011;9907;42.676;26.348;2023-08-31T04:41:04;14.30;;;9.10;;
19525;SDS011;9907;42.676;26.348;2023-08-31T04:43:30;16.23;;;9.83;;
19525;SDS011;9907;42.676;26.348;2023-08-31T04:45:56;19.27;;;10.83;;
19525;SDS011;9907;42.676;26.348;2023-08-31T04:48:22;14.83;;;9.40;;
19525;SDS011;9907;42.676;26.348;2023-08-31T04:50:47;14.10;;;8.87;;
19525;SDS011;9907;42.676;26.348;2023-08-31T04:53:13;9.87;;;8.83;;
19525;SDS011;9907;42.676;26.348;2023-08-31T04:55:38;10.83;;;8.77;;
19525;SDS011;9907;42.676;26.348;2023-08-31T04:58:04;10.57;;;8.53;;
19525;SDS011;9907;42.676;26.348;2023-08-31T05:00:29;8.97;;;7.77;;
19525;SDS011;9907;42.676;26.348;2023-08-31T05:02:56;8.27;;;7.33;;
19525;SDS011;9907;42.676;26.348;2023-08-31T05:05:21;7.30;;;6.60;;
19525;SDS011;9907;42.676;26.348;2023-08-31T05:07:47;7.90;;;6.27;;
19525;SDS011;9907;42.676;26.348;2023-08-31T05:10:12;9.30;;;6.70;;
19525;SDS011;9907;42.676;26.348;2023-08-31T05:12:38;8.10;;;6.33;;
19525;SDS011;9907;42.676;26.348;2023-08-31T05:15:04;6.67;;;6.07;;
19525;SDS011;9907;42.676;26.348;2023-08-31T05:17:30;6.73;;;5.80;;
19525;SDS011;9907;42.676;26.348;2023-08-31T05:19:56;10.48;;;6.70;;
19525;SDS011;9907;42.676;26.348;2023-08-31T05:22:21;6.78;;;6.00;;
19525;SDS011;9907;42.676;26.348;2023-08-31T05:24:47;6.63;;;6.05;;
19525;SDS011;9907;42.676;26.348;2023-08-31T05:27:13;8.98;;;6.47;;
19525;SDS011;9907;42.676;26.348;2023-08-31T05:29:38;6.53;;;5.95;;
19525;SDS011;9907;42.676;26.348;2023-08-31T05:32:04;7.90;;;5.85;;
19525;SDS011;9907;42.676;26.348;2023-08-31T05:34:29;6.85;;;4.95;;
19525;SDS011;9907;42.676;26.348;2023-08-31T05:36:57;7.25;;;5.75;;
19525;SDS011;9907;42.676;26.348;2023-08-31T05:39:23;7.05;;;5.60;;
19525;SDS011;9907;42.676;26.348;2023-08-31T05:41:48;12.00;;;5.45;;
19525;SDS011;9907;42.676;26.348;2023-08-31T05:44:14;5.80;;;4.80;;
19525;SDS011;9907;42.676;26.348;2023-08-31T05:46:39;6.22;;;5.22;;
19525;SDS011;9907;42.676;26.348;2023-08-31T05:49:06;6.15;;;5.57;;
19525;SDS011;9907;42.676;26.348;2023-08-31T05:51:32;7.55;;;5.68;;
19525;SDS011;9907;42.676;26.348;2023-08-31T05:53:57;7.25;;;5.10;;
19525;SDS011;9907;42.676;26.348;2023-08-31T05:56:23;6.47;;;5.40;;
19525;SDS011;9907;42.676;26.348;2023-08-31T05:58:48;8.90;;;5.30;;
19525;SDS011;9907;42.676;26.348;2023-08-31T06:01:15;8.80;;;5.75;;
19525;SDS011;9907;42.676;26.348;2023-08-31T06:03:41;8.00;;;5.38;;
19525;SDS011;9907;42.676;26.348;2023-08-31T06:06:06;10.20;;;5.10;;
19525;SDS011;9907;42.676;26.348;2023-08-31T06:08:32;12.98;;;7.60;;
19525;SDS011;9907;42.676;26.348;2023-08-31T06:10:57;9.07;;;7.43;;
19525;SDS011;9907;42.676;26.348;2023-08-31T06:13:23;10.48;;;7.78;;
19525;SDS011;9907;42.676;26.348;2023-08-31T06:15:49;8.52;;;6.93;;
19525;SDS011;9907;42.676;26.348;2023-08-31T06:18:14;9.13;;;7.07;;
19525;SDS011;9907;42.676;26.348;2023-08-31T06:20:40;10.05;;;6.45;;
19525;SDS011;9907;42.676;26.348;2023-08-31T06:23:05;9.82;;;7.43;;
19525;SDS011;9907;42.676;26.348;2023-08-31T06:25:31;9.25;;;7.32;;
19525;SDS011;9907;42.676;26.348;2023-08-31T06:27:57;11.93;;;8.20;;
19525;SDS011;9907;42.676;26.348;2023-08-31T06:30:22;16.50;;;12.05;;
19525;SDS011;9907;42.676;26.348;2023-08-31T06:32:48;9.52;;;8.35;;
19525;SDS011;9907;42.676;26.348;2023-08-31T06:35:15;8.27;;;6.43;;
19525;SDS011;9907;42.676;26.348;2023-08-31T06:37:41;9.85;;;6.97;;
19525;SDS011;9907;42.676;26.348;2023-08-31T06:40:07;8.98;;;6.88;;
19525;SDS011;9907;42.676;26.348;2023-08-31T06:42:34;10.82;;;7.82;;
19525;SDS011;9907;42.676;26.348;2023-08-31T06:45:00;6.68;;;5.93;;
19525;SDS011;9907;42.676;26.348;2023-08-31T06:47:26;7.57;;;6.10;;
19525;SDS011;9907;42.676;26.348;2023-08-31T06:49:51;5.88;;;5.38;;
19525;SDS011;9907;42.676;26.348;2023-08-31T06:52:18;7.60;;;5.70;;
19525;SDS011;9907;42.676;26.348;2023-08-31T06:54:43;11.35;;;5.88;;
19525;SDS011;9907;42.676;26.348;2023-08-31T06:57:09;7.25;;;5.45;;
19525;SDS011;9907;42.676;26.348;2023-08-31T06:59:34;7.93;;;5.50;;
19525;SDS011;9907;42.676;26.348;2023-08-31T07:01:59;6.95;;;5.50;;
19525;SDS011;9907;42.676;26.348;2023-08-31T07:04:26;6.45;;;5.43;;
19525;SDS011;9907;42.676;26.348;2023-08-31T07:06:52;8.20;;;6.03;;
19525;SDS011;9907;42.676;26.348;2023-08-31T07:09:18;7.35;;;5.13;;
19525;SDS011;9907;42.676;26.348;2023-08-31T07:11:43;6.47;;;5.18;;
19525;SDS011;9907;42.676;26.348;2023-08-31T07:14:09;6.30;;;5.00;;
19525;SDS011;9907;42.676;26.348;2023-08-31T07:16:34;6.25;;;5.70;;
19525;SDS011;9907;42.676;26.348;2023-08-31T07:19:00;12.88;;;5.70;;
19525;SDS011;9907;42.676;26.348;2023-08-31T07:21:25;7.18;;;5.50;;
19525;SDS011;9907;42.676;26.348;2023-08-31T07:23:51;6.03;;;5.22;;
19525;SDS011;9907;42.676;26.348;2023-08-31T07:26:17;9.45;;;5.72;;
19525;SDS011;9907;42.676;26.348;2023-08-31T07:28:43;9.18;;;5.10;;
19525;SDS011;9907;42.676;26.348;2023-08-31T07:31:08;10.82;;;5.85;;
19525;SDS011;9907;42.676;26.348;2023-08-31T07:33:34;7.78;;;4.68;;
19525;SDS011;9907;42.676;26.348;2023-08-31T07:36:00;7.00;;;5.18;;
19525;SDS011;9907;42.676;26.348;2023-08-31T07:38:27;8.25;;;6.05;;
19525;SDS011;9907;42.676;26.348;2023-08-31T07:40:53;8.98;;;5.72;;
19525;SDS011;9907;42.676;26.348;2023-08-31T07:43:19;9.60;;;6.10;;
19525;SDS011;9907;42.676;26.348;2023-08-31T07:45:44;8.57;;;5.18;;
19525;SDS011;9907;42.676;26.348;2023-08-31T07:48:09;6.38;;;5.18;;
19525;SDS011;9907;42.676;26.348;2023-08-31T07:50:35;5.40;;;4.68;;
19525;SDS011;9907;42.676;26.348;2023-08-31T07:53:01;9.63;;;5.13;;
19525;SDS011;9907;42.676;26.348;2023-08-31T07:55:26;7.07;;;4.90;;
19525;SDS011;9907;42.676;26.348;2023-08-31T07:57:51;9.27;;;4.90;;
19525;SDS011;9907;42.676;26.348;2023-08-31T08:00:17;5.93;;;4.72;;
19525;SDS011;9907;42.676;26.348;2023-08-31T08:02:44;6.93;;;4.80;;
19525;SDS011;9907;42.676;26.348;2023-08-31T08:05:11;9.05;;;6.53;;
19525;SDS011;9907;42.676;26.348;2023-08-31T08:07:36;9.65;;;6.40;;
19525;SDS011;9907;42.676;26.348;2023-08-31T08:10:02;7.68;;;5.40;;
19525;SDS011;9907;42.676;26.348;2023-08-31T08:12:27;11.80;;;5.85;;
19525;SDS011;9907;42.676;26.348;2023-08-31T08:15:01;6.57;;;4.63;;
19525;SDS011;9907;42.676;26.348;2023-08-31T08:17:27;6.47;;;4.15;;
19525;SDS011;9907;42.676;26.348;2023-08-31T08:19:52;7.13;;;4.72;;
19525;SDS011;9907;42.676;26.348;2023-08-31T08:22:18;5.18;;;4.43;;
19525;SDS011;9907;42.676;26.348;2023-08-31T08:24:43;5.63;;;4.57;;
19525;SDS011;9907;42.676;26.348;2023-08-31T08:27:08;9.50;;;4.65;;
19525;SDS011;9907;42.676;26.348;2023-08-31T08:29:34;7.43;;;4.50;;
19525;SDS011;9907;42.676;26.348;2023-08-31T08:31:59;6.07;;;4.72;;
19525;SDS011;9907;42.676;26.348;2023-08-31T08:34:25;4.97;;;4.40;;
19525;SDS011;9907;42.676;26.348;2023-08-31T08:36:52;6.00;;;4.57;;
19525;SDS011;9907;42.676;26.348;2023-08-31T08:39:18;8.13;;;5.10;;
19525;SDS011;9907;42.676;26.348;2023-08-31T08:41:43;4.95;;;4.43;;
19525;SDS011;9907;42.676;26.348;2023-08-31T08:44:09;6.03;;;4.07;;
19525;SDS011;9907;42.676;26.348;2023-08-31T08:46:35;5.13;;;4.32;;
19525;SDS011;9907;42.676;26.348;2023-08-31T08:49:02;7.25;;;4.53;;
19525;SDS011;9907;42.676;26.348;2023-08-31T08:51:30;5.10;;;4.18;;
19525;SDS011;9907;42.676;26.348;2023-08-31T08:53:57;6.32;;;4.80;;
19525;SDS011;9907;42.676;26.348;2023-08-31T08:56:24;5.85;;;4.90;;
19525;SDS011;9907;42.676;26.348;2023-08-31T08:58:50;4.97;;;4.47;;
19525;SDS011;9907;42.676;26.348;2023-08-31T09:01:15;4.40;;;3.97;;
19525;SDS011;9907;42.676;26.348;2023-08-31T09:03:43;5.78;;;4.43;;
19525;SDS011;9907;42.676;26.348;2023-08-31T09:06:08;9.25;;;4.72;;
19525;SDS011;9907;42.676;26.348;2023-08-31T09:08:35;7.32;;;4.50;;
19525;SDS011;9907;42.676;26.348;2023-08-31T09:11:02;4.55;;;3.88;;
19525;SDS011;9907;42.676;26.348;2023-08-31T09:13:28;7.30;;;3.97;;
19525;SDS011;9907;42.676;26.348;2023-08-31T09:15:54;12.52;;;5.63;;
19525;SDS011;9907;42.676;26.348;2023-08-31T09:18:27;5.25;;;3.58;;
19525;SDS011;9907;42.676;26.348;2023-08-31T09:20:55;7.15;;;4.15;;
19525;SDS011;9907;42.676;26.348;2023-08-31T09:23:21;9.18;;;5.00;;
19525;SDS011;9907;42.676;26.348;2023-08-31T09:25:48;16.35;;;6.35;;
19525;SDS011;9907;42.676;26.348;2023-08-31T09:28:16;5.07;;;4.32;;
19525;SDS011;9907;42.676;26.348;2023-08-31T09:30:42;4.05;;;3.65;;
19525;SDS011;9907;42.676;26.348;2023-08-31T09:33:08;8.18;;;5.05;;
19525;SDS011;9907;42.676;26.348;2023-08-31T09:35:38;6.80;;;4.10;;
19525;SDS011;9907;42.676;26.348;2023-08-31T09:38:14;6.80;;;4.72;;
19525;SDS011;9907;42.676;26.348;2023-08-31T09:40:39;6.60;;;3.97;;
19525;SDS011;9907;42.676;26.348;2023-08-31T09:43:05;5.05;;;3.55;;
19525;SDS011;9907;42.676;26.348;2023-08-31T09:45:31;6.10;;;4.07;;
19525;SDS011;9907;42.676;26.348;2023-08-31T09:48:01;5.45;;;4.00;;
19525;SDS011;9907;42.676;26.348;2023-08-31T09:50:28;8.27;;;4.78;;
19525;SDS011;9907;42.676;26.348;2023-08-31T09:52:56;7.85;;;4.43;;
19525;SDS011;9907;42.676;26.348;2023-08-31T09:55:28;5.55;;;4.20;;
19525;SDS011;9907;42.676;26.348;2023-08-31T09:57:56;6.55;;;4.47;;
19525;SDS011;9907;42.676;26.348;2023-08-31T10:00:27;4.72;;;4.30;;
19525;SDS011;9907;42.676;26.348;2023-08-31T10:02:55;7.72;;;4.57;;
19525;SDS011;9907;42.676;26.348;2023-08-31T10:05:23;16.17;;;5.95;;
19525;SDS011;9907;42.676;26.348;2023-08-31T10:07:49;7.80;;;6.18;;
19525;SDS011;9907;42.676;26.348;2023-08-31T10:10:15;9.07;;;7.47;;
19525;SDS011;9907;42.676;26.348;2023-08-31T10:12:41;5.97;;;4.90;;
19525;SDS011;9907;42.676;26.348;2023-08-31T10:15:10;7.95;;;4.70;;
19525;SDS011;9907;42.676;26.348;2023-08-31T10:17:37;5.78;;;4.30;;
19525;SDS011;9907;42.676;26.348;2023-08-31T10:20:05;5.10;;;4.22;;
19525;SDS011;9907;42.676;26.348;2023-08-31T10:22:32;7.15;;;4.68;;
19525;SDS011;9907;42.676;26.348;2023-08-31T10:25:01;8.23;;;6.63;;
19525;SDS011;9907;42.676;26.348;2023-08-31T10:27:35;10.98;;;7.00;;
19525;SDS011;9907;42.676;26.348;2023-08-31T10:35:48;9.23;;;4.72;;
19525;SDS011;9907;42.676;26.348;2023-08-31T10:38:29;5.10;;;4.60;;
19525;SDS011;9907;42.676;26.348;2023-08-31T10:40:59;8.88;;;4.70;;
19525;SDS011;9907;42.676;26.348;2023-08-31T10:46:45;5.70;;;4.82;;
19525;SDS011;9907;42.676;26.348;2023-08-31T10:51:36;8.93;;;5.93;;
19525;SDS011;9907;42.676;26.348;2023-08-31T10:59:16;4.78;;;4.28;;
19525;SDS011;9907;42.676;26.348;2023-08-31T11:04:24;5.10;;;4.70;;
19525;SDS011;9907;42.676;26.348;2023-08-31T11:07:12;5.68;;;4.93;;
19525;SDS011;9907;42.676;26.348;2023-08-31T11:09:45;5.32;;;4.20;;
19525;SDS011;9907;42.676;26.348;2023-08-31T11:12:12;6.53;;;5.00;;
19525;SDS011;9907;42.676;26.348;2023-08-31T11:14:38;7.10;;;4.88;;
19525;SDS011;9907;42.676;26.348;2023-08-31T11:17:04;5.30;;;4.65;;
19525;SDS011;9907;42.676;26.348;2023-08-31T11:19:31;6.63;;;4.82;;
19525;SDS011;9907;42.676;26.348;2023-08-31T11:21:57;7.07;;;6.45;;
19525;SDS011;9907;42.676;26.348;2023-08-31T11:24:24;6.93;;;6.28;;
19525;SDS011;9907;42.676;26.348;2023-08-31T11:26:50;10.43;;;8.10;;
19525;SDS011;9907;42.676;26.348;2023-08-31T11:29:15;6.80;;;5.95;;
19525;SDS011;9907;42.676;26.348;2023-08-31T11:31:41;6.00;;;5.18;;
19525;SDS011;9907;42.676;26.348;2023-08-31T11:34:09;8.55;;;5.65;;
19525;SDS011;9907;42.676;26.348;2023-08-31T11:36:38;7.35;;;5.20;;
19525;SDS011;9907;42.676;26.348;2023-08-31T11:39:04;6.15;;;4.50;;
19525;SDS011;9907;42.676;26.348;2023-08-31T11:41:32;5.03;;;4.53;;
19525;SDS011;9907;42.676;26.348;2023-08-31T11:44:00;4.85;;;4.45;;
19525;SDS011;9907;42.676;26.348;2023-08-31T11:46:26;8.13;;;4.85;;
19525;SDS011;9907;42.676;26.348;2023-08-31T11:48:52;5.68;;;5.05;;
19525;SDS011;9907;42.676;26.348;2023-08-31T11:51:19;6.28;;;5.07;;
19525;SDS011;9907;42.676;26.348;2023-08-31T11:53:45;5.30;;;4.75;;
19525;SDS011;9907;42.676;26.348;2023-08-31T11:56:10;5.13;;;4.63;;
19525;SDS011;9907;42.676;26.348;2023-08-31T11:58:42;5.07;;;4.57;;
19525;SDS011;9907;42.676;26.348;2023-08-31T12:01:08;8.15;;;4.50;;
19525;SDS011;9907;42.676;26.348;2023-08-31T12:03:43;5.03;;;4.53;;
19525;SDS011;9907;42.676;26.348;2023-08-31T12:06:10;5.10;;;4.23;;
19525;SDS011;9907;42.676;26.348;2023-08-31T12:08:36;5.45;;;4.40;;
19525;SDS011;9907;42.676;26.348;2023-08-31T12:11:02;5.68;;;4.60;;
19525;SDS011;9907;42.676;26.348;2023-08-31T12:13:27;6.13;;;4.72;;
19525;SDS011;9907;42.676;26.348;2023-08-31T12:15:57;7.70;;;4.50;;
19525;SDS011;9907;42.676;26.348;2023-08-31T12:18:22;5.80;;;4.22;;
19525;SDS011;9907;42.676;26.348;2023-08-31T12:20:52;7.53;;;5.35;;
19525;SDS011;9907;42.676;26.348;2023-08-31T12:23:20;9.07;;;5.03;;
19525;SDS011;9907;42.676;26.348;2023-08-31T12:25:47;6.10;;;5.05;;
19525;SDS011;9907;42.676;26.348;2023-08-31T12:28:20;5.22;;;4.70;;
19525;SDS011;9907;42.676;26.348;2023-08-31T12:30:50;5.97;;;4.70;;
19525;SDS011;9907;42.676;26.348;2023-08-31T12:33:17;5.00;;;4.47;;
19525;SDS011;9907;42.676;26.348;2023-08-31T12:35:43;5.75;;;4.68;;
19525;SDS011;9907;42.676;26.348;2023-08-31T12:38:09;7.68;;;4.75;;
19525;SDS011;9907;42.676;26.348;2023-08-31T12:40:34;7.55;;;4.90;;
19525;SDS011;9907;42.676;26.348;2023-08-31T12:42:59;5.93;;;4.82;;
19525;SDS011;9907;42.676;26.348;2023-08-31T12:45:25;8.57;;;5.73;;
19525;SDS011;9907;42.676;26.348;2023-08-31T12:47:50;6.90;;;5.27;;
19525;SDS011;9907;42.676;26.348;2023-08-31T12:50:16;6.05;;;5.28;;
19525;SDS011;9907;42.676;26.348;2023-08-31T12:52:43;7.40;;;5.10;;
19525;SDS011;9907;42.676;26.348;2023-08-31T12:55:14;8.18;;;5.20;;
19525;SDS011;9907;42.676;26.348;2023-08-31T12:57:39;7.32;;;5.18;;
19525;SDS011;9907;42.676;26.348;2023-08-31T13:00:08;8.13;;;5.70;;
19525;SDS011;9907;42.676;26.348;2023-08-31T13:02:38;7.32;;;6.18;;
19525;SDS011;9907;42.676;26.348;2023-08-31T13:05:05;9.07;;;6.57;;
19525;SDS011;9907;42.676;26.348;2023-08-31T13:07:32;10.95;;;6.07;;
19525;SDS011;9907;42.676;26.348;2023-08-31T13:10:01;7.10;;;5.80;;
19525;SDS011;9907;42.676;26.348;2023-08-31T13:12:29;7.10;;;5.70;;
19525;SDS011;9907;42.676;26.348;2023-08-31T13:14:55;5.82;;;5.18;;
19525;SDS011;9907;42.676;26.348;2023-08-31T13:17:21;8.83;;;5.27;;
19525;SDS011;9907;42.676;26.348;2023-08-31T13:19:51;9.75;;;5.97;;
19525;SDS011;9907;42.676;26.348;2023-08-31T13:22:20;8.10;;;5.70;;
19525;SDS011;9907;42.676;26.348;2023-08-31T13:24:46;7.53;;;5.10;;
19525;SDS011;9907;42.676;26.348;2023-08-31T13:27:12;5.75;;;4.82;;
19525;SDS011;9907;42.676;26.348;2023-08-31T13:29:38;5.68;;;5.07;;
19525;SDS011;9907;42.676;26.348;2023-08-31T13:32:04;7.53;;;4.72;;
19525;SDS011;9907;42.676;26.348;2023-08-31T13:34:30;6.15;;;4.88;;
19525;SDS011;9907;42.676;26.348;2023-08-31T13:36:56;6.10;;;5.28;;
19525;SDS011;9907;42.676;26.348;2023-08-31T13:39:21;6.82;;;4.93;;
19525;SDS011;9907;42.676;26.348;2023-08-31T13:41:50;7.65;;;5.30;;
19525;SDS011;9907;42.676;26.348;2023-08-31T13:44:17;6.35;;;5.70;;
19525;SDS011;9907;42.676;26.348;2023-08-31T13:46:43;5.65;;;4.88;;
19525;SDS011;9907;42.676;26.348;2023-08-31T13:49:08;6.33;;;5.50;;
19525;SDS011;9907;42.676;26.348;2023-08-31T13:51:34;8.10;;;6.75;;
19525;SDS011;9907;42.676;26.348;2023-08-31T13:53:59;9.38;;;5.20;;
19525;SDS011;9907;42.676;26.348;2023-08-31T13:56:26;10.38;;;6.50;;
19525;SDS011;9907;42.676;26.348;2023-08-31T13:58:51;7.65;;;5.78;;
19525;SDS011;9907;42.676;26.348;2023-08-31T14:01:16;6.22;;;5.63;;
19525;SDS011;9907;42.676;26.348;2023-08-31T14:03:43;8.05;;;6.07;;
19525;SDS011;9907;42.676;26.348;2023-08-31T14:06:08;6.05;;;5.40;;
19525;SDS011;9907;42.676;26.348;2023-08-31T14:08:34;5.70;;;5.00;;
19525;SDS011;9907;42.676;26.348;2023-08-31T14:10:59;7.40;;;4.72;;
19525;SDS011;9907;42.676;26.348;2023-08-31T14:13:26;6.25;;;5.00;;
19525;SDS011;9907;42.676;26.348;2023-08-31T14:15:52;5.30;;;4.80;;
19525;SDS011;9907;42.676;26.348;2023-08-31T14:18:17;11.05;;;6.20;;
19525;SDS011;9907;42.676;26.348;2023-08-31T14:20:43;8.90;;;5.80;;
19525;SDS011;9907;42.676;26.348;2023-08-31T14:23:08;6.20;;;5.17;;
19525;SDS011;9907;42.676;26.348;2023-08-31T14:25:37;10.80;;;5.78;;
19525;SDS011;9907;42.676;26.348;2023-08-31T14:28:05;9.48;;;6.20;;
19525;SDS011;9907;42.676;26.348;2023-08-31T14:30:31;7.57;;;5.90;;
19525;SDS011;9907;42.676;26.348;2023-08-31T14:32:56;12.70;;;6.38;;
19525;SDS011;9907;42.676;26.348;2023-08-31T14:35:22;6.27;;;5.23;;
19525;SDS011;9907;42.676;26.348;2023-08-31T14:37:47;9.77;;;6.05;;
19525;SDS011;9907;42.676;26.348;2023-08-31T14:40:13;10.03;;;6.07;;
19525;SDS011;9907;42.676;26.348;2023-08-31T14:42:39;14.23;;;6.77;;
19525;SDS011;9907;42.676;26.348;2023-08-31T14:45:05;14.93;;;6.93;;
19525;SDS011;9907;42.676;26.348;2023-08-31T14:47:31;8.60;;;6.05;;
19525;SDS011;9907;42.676;26.348;2023-08-31T14:49:57;10.48;;;6.80;;
19525;SDS011;9907;42.676;26.348;2023-08-31T14:52:22;5.43;;;4.77;;
19525;SDS011;9907;42.676;26.348;2023-08-31T14:54:48;6.93;;;4.90;;
19525;SDS011;9907;42.676;26.348;2023-08-31T14:57:13;10.23;;;5.53;;
19525;SDS011;9907;42.676;26.348;2023-08-31T14:59:39;5.47;;;4.57;;